createdAt,value
2022-10-20T00:00:25.395Z,9.30
2022-10-20T00:02:52.646Z,8.75
2022-10-20T00:05:19.842Z,8.07
2022-10-20T00:07:47.029Z,9.13
2022-10-20T00:10:14.173Z,8.77
2022-10-20T00:12:41.307Z,8.75
2022-10-20T00:15:08.564Z,9.38
2022-10-20T00:17:35.771Z,7.78
2022-10-20T00:20:03.258Z,8.55
2022-10-20T00:22:32.091Z,8.30
2022-10-20T00:25:01.767Z,8.10
2022-10-20T00:27:31.489Z,9.00
2022-10-20T00:29:58.623Z,9.52
2022-10-20T00:32:25.795Z,8.50
2022-10-20T00:34:52.930Z,9.23
2022-10-20T00:37:20.089Z,9.63
2022-10-20T00:39:47.216Z,9.18
2022-10-20T00:42:20.951Z,8.30
2022-10-20T00:44:53.185Z,8.50
2022-10-20T00:47:22.189Z,8.77
2022-10-20T00:49:50.587Z,8.35
2022-10-20T00:52:19.257Z,9.13
2022-10-20T00:54:49.114Z,9.77
2022-10-20T00:57:16.668Z,9.75
2022-10-20T00:59:47.895Z,9.32
2022-10-20T01:02:15.101Z,9.05
2022-10-20T01:04:42.447Z,9.68
2022-10-20T01:07:09.762Z,9.07
2022-10-20T01:09:38.998Z,8.88
2022-10-20T01:12:10.769Z,9.00
2022-10-20T01:14:49.946Z,9.27
2022-10-20T01:17:35.342Z,9.85
2022-10-20T01:20:02.650Z,9.45
2022-10-20T01:22:39.556Z,9.73
2022-10-20T01:25:06.666Z,9.68
2022-10-20T01:27:36.816Z,9.70
2022-10-20T01:30:11.286Z,9.40
2022-10-20T01:32:41.146Z,9.32
2022-10-20T01:35:11.217Z,10.27
2022-10-20T01:37:50.697Z,9.45
2022-10-20T01:40:24.860Z,9.05
2022-10-20T01:42:53.317Z,10.40
2022-10-20T01:45:21.899Z,9.75
2022-10-20T01:47:51.166Z,9.57
2022-10-20T01:50:19.566Z,9.35
2022-10-20T01:52:51.495Z,8.85
2022-10-20T01:55:19.121Z,10.23
2022-10-20T01:57:53.096Z,9.25
2022-10-20T02:00:20.369Z,9.43
2022-10-20T02:02:59.824Z,9.35
2022-10-20T02:05:45.382Z,8.90
2022-10-20T02:08:17.163Z,9.13
2022-10-20T02:10:55.710Z,9.73
2022-10-20T02:13:23.069Z,9.82
2022-10-20T02:15:57.490Z,10.05
2022-10-20T02:18:32.547Z,8.98
2022-10-20T02:21:01.499Z,10.18
2022-10-20T02:23:33.841Z,8.88
2022-10-20T02:26:09.330Z,10.32
2022-10-20T02:28:38.272Z,9.85
2022-10-20T02:31:05.841Z,9.93
2022-10-20T02:33:33.274Z,9.55
2022-10-20T02:36:00.886Z,9.63
2022-10-20T02:38:30.351Z,9.38
2022-10-20T02:40:57.502Z,9.88
2022-10-20T02:43:24.769Z,10.23
2022-10-20T02:45:51.904Z,9.00
2022-10-20T02:48:21.444Z,9.90
2022-10-20T02:50:48.557Z,9.82
2022-10-20T02:53:18.060Z,10.00
2022-10-20T02:55:45.223Z,9.23
2022-10-20T02:58:12.377Z,9.48
2022-10-20T03:00:39.636Z,9.77
2022-10-20T03:03:06.778Z,9.63
2022-10-20T03:05:33.939Z,10.40
2022-10-20T03:08:01.092Z,10.05
2022-10-20T03:10:28.245Z,9.95
2022-10-20T03:12:55.385Z,9.88
2022-10-20T03:15:22.570Z,10.30
2022-10-20T03:17:49.705Z,8.90
2022-10-20T03:20:16.888Z,10.45
2022-10-20T03:22:46.493Z,10.45
2022-10-20T03:25:13.634Z,10.20
2022-10-20T03:27:40.761Z,10.07
2022-10-20T03:30:08.104Z,9.65
2022-10-20T03:32:36.001Z,10.23
2022-10-20T03:35:03.490Z,10.13
2022-10-20T03:37:30.618Z,9.93
2022-10-20T03:39:57.773Z,10.27
2022-10-20T03:42:24.928Z,10.25
2022-10-20T03:44:52.099Z,9.57
2022-10-20T03:47:19.331Z,11.20
2022-10-20T03:49:46.433Z,10.18
2022-10-20T03:52:13.633Z,9.90
2022-10-20T03:54:43.199Z,10.85
2022-10-20T03:57:10.423Z,9.30
2022-10-20T03:59:37.571Z,9.88
2022-10-20T04:02:04.971Z,9.40
2022-10-20T04:04:32.281Z,11.20
2022-10-20T04:06:59.443Z,11.63
2022-10-20T04:09:26.624Z,10.85
2022-10-20T04:11:53.778Z,10.50
2022-10-20T04:14:20.958Z,11.30
2022-10-20T04:16:48.232Z,10.73
2022-10-20T04:19:15.407Z,10.52
2022-10-20T04:21:42.532Z,10.88
2022-10-20T04:24:09.831Z,11.38
2022-10-20T04:26:37.069Z,11.15
2022-10-20T04:29:04.234Z,10.75
2022-10-20T04:31:31.402Z,10.80
2022-10-20T04:33:58.641Z,10.65
2022-10-20T04:36:25.870Z,10.50
2022-10-20T04:38:52.995Z,10.57
2022-10-20T04:41:20.114Z,11.18
2022-10-20T04:43:51.959Z,11.13
2022-10-20T04:46:19.518Z,11.38
2022-10-20T04:48:46.666Z,11.32
2022-10-20T04:51:14.782Z,11.93
2022-10-20T04:53:41.920Z,12.65
2022-10-20T04:56:09.936Z,11.52
2022-10-20T04:58:37.069Z,12.32
2022-10-20T05:01:11.167Z,12.40
2022-10-20T05:03:38.446Z,12.35
2022-10-20T05:06:13.183Z,12.48
2022-10-20T05:08:41.096Z,13.20
2022-10-20T05:11:08.954Z,13.73
2022-10-20T05:13:36.351Z,12.95
2022-10-20T05:16:04.515Z,12.52
2022-10-20T05:18:31.771Z,13.70
2022-10-20T05:21:09.013Z,12.55
2022-10-20T05:23:36.754Z,12.75
2022-10-20T05:26:04.962Z,13.70
2022-10-20T05:28:32.620Z,12.80
2022-10-20T05:31:07.493Z,13.38
2022-10-20T05:33:34.881Z,14.50
2022-10-20T05:36:07.384Z,12.75
2022-10-20T05:38:36.746Z,13.00
2022-10-20T05:41:10.897Z,13.23
2022-10-20T05:43:38.549Z,12.93
2022-10-20T05:46:06.106Z,10.93
2022-10-20T05:48:33.608Z,12.88
2022-10-20T05:51:13.934Z,12.63
2022-10-20T05:53:42.753Z,13.63
2022-10-20T05:56:11.296Z,13.10
2022-10-20T05:58:38.566Z,12.48
2022-10-20T06:01:10.094Z,12.13
2022-10-20T06:03:37.724Z,12.68
2022-10-20T06:06:05.336Z,12.25
2022-10-20T06:08:32.991Z,11.65
2022-10-20T06:11:04.380Z,10.85
2022-10-20T06:13:32.617Z,11.43
2022-10-20T06:16:04.501Z,10.13
2022-10-20T06:18:32.552Z,10.85
2022-10-20T06:21:01.007Z,10.85
2022-10-20T06:23:28.284Z,9.30
2022-10-20T06:25:56.032Z,8.43
2022-10-20T06:28:23.233Z,6.95
2022-10-20T06:30:50.455Z,6.95
2022-10-20T06:33:17.608Z,5.85
2022-10-20T06:35:44.743Z,4.95
2022-10-20T06:38:11.866Z,4.57
2022-10-20T06:40:39.388Z,5.22
2022-10-20T06:43:06.529Z,4.93
2022-10-20T06:45:33.893Z,5.80
2022-10-20T06:48:01.092Z,4.93
2022-10-20T06:50:28.220Z,4.75
2022-10-20T06:52:55.391Z,4.82
2022-10-20T06:55:22.551Z,4.40
2022-10-20T06:57:49.827Z,4.22
2022-10-20T07:00:17.129Z,4.55
2022-10-20T07:02:44.385Z,4.70
2022-10-20T07:05:11.518Z,6.78
2022-10-20T07:07:38.658Z,4.07
2022-10-20T07:10:05.941Z,4.47
2022-10-20T07:12:33.091Z,4.45
2022-10-20T07:15:00.319Z,4.43
2022-10-20T07:17:27.581Z,4.15
2022-10-20T07:19:54.694Z,4.43
2022-10-20T07:22:22.138Z,4.60
2022-10-20T07:24:49.313Z,3.95
2022-10-20T07:27:16.441Z,3.53
2022-10-20T07:29:43.605Z,4.30
2022-10-20T07:32:10.733Z,4.45
2022-10-20T07:34:37.937Z,3.83
2022-10-20T07:37:05.077Z,3.65
2022-10-20T07:39:32.223Z,3.83
2022-10-20T07:41:59.343Z,4.22
2022-10-20T07:44:26.640Z,3.63
2022-10-20T07:46:53.821Z,3.75
2022-10-20T07:52:08.248Z,4.05
2022-10-20T07:54:35.542Z,3.20
2022-10-20T07:57:02.720Z,4.88
2022-10-20T07:59:29.946Z,3.55
2022-10-20T08:01:59.594Z,3.50
2022-10-20T08:04:27.356Z,3.90
2022-10-20T08:06:54.638Z,13.57
2022-10-20T08:09:21.810Z,6.32
2022-10-20T08:11:52.739Z,4.43
2022-10-20T08:14:22.564Z,4.05
2022-10-20T08:16:51.738Z,2.88
2022-10-20T08:19:30.606Z,3.38
2022-10-20T08:21:57.827Z,2.90
2022-10-20T08:24:24.980Z,3.13
2022-10-20T08:26:52.102Z,3.70
2022-10-20T08:29:19.236Z,3.03
2022-10-20T08:31:46.379Z,4.07
2022-10-20T08:34:13.528Z,3.75
2022-10-20T08:36:40.755Z,3.30
2022-10-20T08:39:07.888Z,3.15
2022-10-20T08:42:06.471Z,4.22
2022-10-20T08:44:33.769Z,3.75
2022-10-20T08:47:02.100Z,2.83
2022-10-20T08:49:31.223Z,2.95
2022-10-20T08:51:58.979Z,3.17
2022-10-20T08:54:26.189Z,2.70
2022-10-20T08:56:53.496Z,3.72
2022-10-20T08:59:33.723Z,2.40
2022-10-20T09:02:01.216Z,2.45
2022-10-20T09:04:33.374Z,2.78
2022-10-20T09:07:05.413Z,2.80
2022-10-20T09:12:07.907Z,1.70
2022-10-20T09:14:37.227Z,1.60
2022-10-20T09:17:07.908Z,1.10
2022-10-20T09:19:36.604Z,1.45
2022-10-20T09:22:05.736Z,2.33
2022-10-20T09:24:33.695Z,2.13
2022-10-20T09:27:18.436Z,3.05
2022-10-20T09:29:45.698Z,3.17
2022-10-20T09:32:48.577Z,3.40
2022-10-20T09:35:15.913Z,3.60
2022-10-20T09:37:44.383Z,3.58
2022-10-20T09:40:18.745Z,4.15
2022-10-20T09:42:49.928Z,3.28
2022-10-20T09:45:22.038Z,2.47
2022-10-20T09:47:54.625Z,2.22
2022-10-20T09:50:27.966Z,2.67
2022-10-20T09:52:55.540Z,2.13
2022-10-20T09:55:51.692Z,1.00
2022-10-20T09:58:21.475Z,2.13
2022-10-20T10:00:56.194Z,1.08
2022-10-20T10:03:26.404Z,1.63
2022-10-20T10:05:53.571Z,1.38
2022-10-20T10:08:22.119Z,1.35
2022-10-20T10:10:58.778Z,1.00
2022-10-20T10:13:27.029Z,0.90
2022-10-20T10:16:01.824Z,1.00
2022-10-20T10:18:29.314Z,1.40
2022-10-20T10:21:01.085Z,1.23
2022-10-20T10:23:29.759Z,1.42
2022-10-20T10:26:00.586Z,1.85
2022-10-20T10:28:37.602Z,1.10
2022-10-20T10:31:09.390Z,1.20
2022-10-20T10:33:36.624Z,1.48
2022-10-20T10:36:06.062Z,1.35
2022-10-20T10:38:33.198Z,1.20
2022-10-20T10:41:00.299Z,1.20
2022-10-20T10:43:50.602Z,1.10
2022-10-20T10:46:20.288Z,1.20
2022-10-20T10:48:53.497Z,0.90
2022-10-20T10:51:39.440Z,1.55
2022-10-20T10:54:29.331Z,0.90
2022-10-20T10:57:19.716Z,1.15
2022-10-20T10:59:48.917Z,0.90
2022-10-20T11:02:34.940Z,1.25
2022-10-20T11:05:20.371Z,1.17
2022-10-20T11:07:52.464Z,0.88
2022-10-20T11:10:30.425Z,1.63
2022-10-20T11:13:12.713Z,1.02
2022-10-20T11:15:58.507Z,2.65
2022-10-20T11:18:31.356Z,1.20
2022-10-20T11:21:07.308Z,0.73
2022-10-20T11:23:46.606Z,1.02
2022-10-20T11:26:32.704Z,0.98
2022-10-20T11:29:01.480Z,1.10
2022-10-20T11:31:28.572Z,0.95
2022-10-20T11:34:00.665Z,1.08
2022-10-20T11:36:32.459Z,1.05
2022-10-20T11:38:59.701Z,0.80
2022-10-20T11:41:29.600Z,0.88
2022-10-20T11:44:04.233Z,0.80
2022-10-20T11:46:35.509Z,0.80
2022-10-20T11:49:04.405Z,0.70
2022-10-20T11:51:31.916Z,0.70
2022-10-20T11:54:11.461Z,1.23
2022-10-20T11:56:57.681Z,0.98
2022-10-20T11:59:25.039Z,0.82
2022-10-20T12:01:55.501Z,0.88
2022-10-20T12:04:31.603Z,1.02
2022-10-20T12:07:16.814Z,1.20
2022-10-20T12:09:55.748Z,0.95
2022-10-20T12:12:32.656Z,0.95
2022-10-20T12:15:04.724Z,1.00
2022-10-20T12:17:31.909Z,1.02
2022-10-20T12:20:19.025Z,1.10
2022-10-20T12:22:49.922Z,1.13
2022-10-20T12:25:20.560Z,1.13
2022-10-20T12:27:47.837Z,49.67
2022-10-20T12:30:34.024Z,0.80
2022-10-20T12:33:18.238Z,0.75
2022-10-20T12:35:59.908Z,0.80
2022-10-20T12:38:27.631Z,0.50
2022-10-20T12:40:59.643Z,0.60
2022-10-20T12:43:31.220Z,0.80
2022-10-20T12:45:59.745Z,0.75
2022-10-20T12:48:27.142Z,0.95
2022-10-20T12:50:54.537Z,0.70
2022-10-20T12:53:26.669Z,1.15
2022-10-20T12:56:10.815Z,0.80
2022-10-20T12:58:39.326Z,0.90
2022-10-20T13:01:08.280Z,0.80
2022-10-20T13:03:37.241Z,0.50
2022-10-20T13:06:30.831Z,0.60
2022-10-20T13:09:04.540Z,0.60
2022-10-20T13:11:37.732Z,4.32
2022-10-20T13:14:28.088Z,0.55
2022-10-20T13:17:11.289Z,0.75
2022-10-20T13:20:01.405Z,0.52
2022-10-20T13:22:42.891Z,0.40
2022-10-20T13:25:39.999Z,0.50
2022-10-20T13:28:18.388Z,0.80
2022-10-20T13:31:02.611Z,0.38
2022-10-20T13:33:44.486Z,0.38
2022-10-20T13:36:23.743Z,0.70
2022-10-20T13:38:57.121Z,0.57
2022-10-20T13:41:37.113Z,0.57
2022-10-20T13:44:25.838Z,0.38
2022-10-20T13:46:58.628Z,0.28
2022-10-20T13:49:46.584Z,0.35
2022-10-20T13:52:17.162Z,0.20
2022-10-20T13:54:48.753Z,0.20
2022-10-20T13:57:33.073Z,0.35
2022-10-20T14:00:04.353Z,0.30
2022-10-20T14:02:33.520Z,0.40
2022-10-20T14:05:03.851Z,0.38
2022-10-20T14:07:44.629Z,0.20
2022-10-20T14:10:30.333Z,0.40
2022-10-20T14:13:00.026Z,0.40
2022-10-20T14:15:32.615Z,0.38
2022-10-20T14:20:27.408Z,0.40
2022-10-20T14:22:55.060Z,0.30
2022-10-20T14:25:25.084Z,0.22
2022-10-20T14:27:53.470Z,0.20
2022-10-20T14:30:21.058Z,0.40
2022-10-20T14:32:49.821Z,0.63
2022-10-20T14:35:18.729Z,0.50
2022-10-20T14:37:51.489Z,0.20
2022-10-20T14:42:50.889Z,0.40
2022-10-20T14:45:19.468Z,0.20
2022-10-20T14:47:47.615Z,0.22
2022-10-20T14:50:25.000Z,0.20
2022-10-20T14:52:54.161Z,0.30
2022-10-20T14:55:27.727Z,0.30
2022-10-20T14:57:55.938Z,0.30
2022-10-20T15:00:30.282Z,0.40
2022-10-20T15:02:58.741Z,0.43
2022-10-20T15:05:32.115Z,0.45
2022-10-20T15:08:16.977Z,0.30
2022-10-20T15:10:44.332Z,0.30
2022-10-20T15:13:23.584Z,0.40
2022-10-20T15:15:54.291Z,0.40
2022-10-20T15:18:23.284Z,0.43
2022-10-20T15:20:51.272Z,0.32
2022-10-20T15:23:22.394Z,0.20
2022-10-20T15:25:49.576Z,0.28
2022-10-20T15:28:16.655Z,0.30
2022-10-20T15:30:43.792Z,0.35
2022-10-20T15:33:13.280Z,0.70
2022-10-20T15:35:44.985Z,0.80
2022-10-20T15:38:12.161Z,0.38
2022-10-20T15:40:39.353Z,0.20
2022-10-20T15:43:06.504Z,0.43
2022-10-20T15:45:39.631Z,0.90
2022-10-20T15:48:06.871Z,0.80
2022-10-20T15:50:34.043Z,0.30
2022-10-20T15:53:01.171Z,0.75
2022-10-20T15:55:32.333Z,1.85
2022-10-20T15:58:02.222Z,0.85
2022-10-20T16:00:29.892Z,0.90
2022-10-20T16:02:57.316Z,1.40
2022-10-20T16:05:27.771Z,0.60
2022-10-20T16:07:55.825Z,0.52
2022-10-20T16:10:24.161Z,0.30
2022-10-20T16:12:51.760Z,0.25
2022-10-20T16:15:19.244Z,0.80
2022-10-20T16:17:47.045Z,0.40
2022-10-20T16:20:15.221Z,0.55
2022-10-20T16:22:44.537Z,0.70
2022-10-20T16:25:12.112Z,0.50
2022-10-20T16:27:39.580Z,1.20
2022-10-20T16:30:07.683Z,1.10
2022-10-20T16:32:35.595Z,0.47
2022-10-20T16:35:03.608Z,2.05
2022-10-20T16:37:31.827Z,1.70
2022-10-20T16:39:59.504Z,1.00
2022-10-20T16:42:28.245Z,3.88
2022-10-20T16:44:55.425Z,2.05
2022-10-20T16:47:22.708Z,2.40
2022-10-20T16:49:49.946Z,0.95
2022-10-20T16:52:17.143Z,0.82
2022-10-20T16:54:46.746Z,0.93
2022-10-20T16:57:13.998Z,0.50
2022-10-20T16:59:42.758Z,0.30
2022-10-20T17:02:10.744Z,0.50
2022-10-20T17:04:37.956Z,1.15
2022-10-20T17:07:05.719Z,1.70
2022-10-20T17:09:32.868Z,1.27
2022-10-20T17:12:00.036Z,1.30
2022-10-20T17:14:27.445Z,2.00
2022-10-20T17:16:54.706Z,1.42
2022-10-20T17:19:24.259Z,1.52
2022-10-20T17:21:55.929Z,1.55
2022-10-20T17:24:24.461Z,1.67
2022-10-20T17:26:51.749Z,4.25
2022-10-20T17:29:23.647Z,2.03
2022-10-20T17:31:53.109Z,2.08
2022-10-20T17:34:20.435Z,5.45
2022-10-20T17:36:47.636Z,9.48
2022-10-20T17:39:16.768Z,2.17
2022-10-20T17:41:43.924Z,0.95
2022-10-20T17:44:11.719Z,0.88
2022-10-20T17:46:38.919Z,0.93
2022-10-20T17:49:06.482Z,1.38
2022-10-20T17:51:34.985Z,2.40
2022-10-20T17:54:02.743Z,1.10
2022-10-20T17:56:35.323Z,1.10
2022-10-20T17:59:06.389Z,0.80
2022-10-20T18:01:38.230Z,1.08
2022-10-20T18:04:13.234Z,0.80
2022-10-20T18:06:43.308Z,0.95
2022-10-20T18:09:11.659Z,1.10
2022-10-20T18:11:39.763Z,1.30
2022-10-20T18:14:07.258Z,1.60
2022-10-20T18:16:35.241Z,1.52
2022-10-20T18:19:02.697Z,1.83
2022-10-20T18:21:30.560Z,1.02
2022-10-20T18:23:58.838Z,1.55
2022-10-20T18:26:26.408Z,1.20
2022-10-20T18:28:53.688Z,1.50
2022-10-20T18:31:30.772Z,1.08
2022-10-20T18:34:02.676Z,1.20
2022-10-20T18:36:33.748Z,1.00
2022-10-20T18:39:01.130Z,1.17
2022-10-20T18:41:33.261Z,1.02
2022-10-20T18:44:01.832Z,0.95
2022-10-20T18:46:29.956Z,1.40
2022-10-20T18:48:57.728Z,0.90
2022-10-20T18:51:25.003Z,0.63
2022-10-20T18:53:53.668Z,0.60
2022-10-20T18:56:21.901Z,0.70
2022-10-20T18:58:50.756Z,0.60
2022-10-20T19:01:18.879Z,0.63
2022-10-20T19:03:47.363Z,0.65
2022-10-20T19:06:16.682Z,0.63
2022-10-20T19:08:44.008Z,1.02
2022-10-20T19:11:12.262Z,0.63
2022-10-20T19:13:39.869Z,1.73
2022-10-20T19:16:08.658Z,0.77
2022-10-20T19:18:36.181Z,0.82
2022-10-20T19:21:04.913Z,0.90
2022-10-20T19:23:32.762Z,0.40
2022-10-20T19:26:07.367Z,0.40
2022-10-20T19:28:35.987Z,0.70
2022-10-20T19:31:03.264Z,0.70
2022-10-20T19:33:30.470Z,0.90
2022-10-20T19:35:57.697Z,1.20
2022-10-20T19:38:24.883Z,0.80
2022-10-20T19:40:52.093Z,1.23
2022-10-20T19:43:19.397Z,1.00
2022-10-20T19:45:49.121Z,0.70
2022-10-20T19:48:17.265Z,0.70
2022-10-20T19:50:44.590Z,0.77
2022-10-20T19:53:11.997Z,0.40
2022-10-20T19:55:39.256Z,0.65
2022-10-20T19:58:06.461Z,0.55
2022-10-20T20:00:33.705Z,0.40
2022-10-20T20:03:00.873Z,0.55
2022-10-20T20:05:28.109Z,0.95
2022-10-20T20:07:55.360Z,0.30
2022-10-20T20:10:22.596Z,0.50
2022-10-20T20:12:49.803Z,0.47
2022-10-20T20:15:17.012Z,0.60
2022-10-20T20:17:44.184Z,0.70
2022-10-20T20:20:11.414Z,0.47
2022-10-20T20:22:38.593Z,0.50
2022-10-20T20:25:05.967Z,0.47
2022-10-20T20:27:33.207Z,0.88
2022-10-20T20:30:02.213Z,0.50
2022-10-20T20:32:30.178Z,0.50
2022-10-20T20:34:57.407Z,0.50
2022-10-20T20:37:24.755Z,0.50
2022-10-20T20:39:51.936Z,0.40
2022-10-20T20:42:19.107Z,1.15
2022-10-20T20:44:46.285Z,0.43
2022-10-20T20:47:17.969Z,0.40
2022-10-20T20:49:45.153Z,0.50
2022-10-20T20:52:12.361Z,0.50
2022-10-20T20:54:39.684Z,0.40
2022-10-20T20:57:06.878Z,0.35
2022-10-20T20:59:34.081Z,0.50
2022-10-20T21:02:01.316Z,0.43
2022-10-20T21:04:30.652Z,0.38
2022-10-20T21:07:02.190Z,0.65
2022-10-20T21:09:30.145Z,0.68
2022-10-20T21:11:57.525Z,0.70
2022-10-20T21:14:24.823Z,0.73
2022-10-20T21:16:52.024Z,1.10
2022-10-20T21:19:20.186Z,1.33
2022-10-20T21:21:50.879Z,1.90
2022-10-20T21:24:18.700Z,1.95
2022-10-20T21:26:46.044Z,1.83
2022-10-20T21:29:13.220Z,2.47
2022-10-20T21:31:41.043Z,1.15
2022-10-20T21:34:08.539Z,1.58
2022-10-20T21:36:36.603Z,1.63
2022-10-20T21:39:05.183Z,2.15
2022-10-20T21:41:33.039Z,1.45
2022-10-20T21:44:01.046Z,1.55
2022-10-20T21:46:32.484Z,0.98
2022-10-20T21:49:01.163Z,1.10
2022-10-20T21:51:29.929Z,1.50
2022-10-20T21:54:17.201Z,1.10
2022-10-20T21:56:44.788Z,1.25
2022-10-20T21:59:19.957Z,1.60
2022-10-20T22:01:48.173Z,1.25
2022-10-20T22:04:15.688Z,0.98
2022-10-20T22:06:43.211Z,1.10
2022-10-20T22:09:11.411Z,1.00
2022-10-20T22:11:40.132Z,0.90
2022-10-20T22:14:07.743Z,1.00
2022-10-20T22:16:36.836Z,1.10
2022-10-20T22:19:14.862Z,0.90
2022-10-20T22:21:43.426Z,1.05
2022-10-20T22:24:11.202Z,1.20
2022-10-20T22:26:38.502Z,0.95
2022-10-20T22:29:06.768Z,1.20
2022-10-20T22:31:33.973Z,1.70
2022-10-20T22:34:01.160Z,1.85
2022-10-20T22:36:29.023Z,0.93
2022-10-20T22:38:56.244Z,1.77
2022-10-20T22:41:23.616Z,1.23
2022-10-20T22:43:50.886Z,1.55
2022-10-20T22:46:18.395Z,1.33
2022-10-20T22:48:46.327Z,1.70
2022-10-20T22:51:14.155Z,1.58
2022-10-20T22:53:41.961Z,1.70
2022-10-20T22:56:13.549Z,1.75
2022-10-20T22:58:41.128Z,1.52
2022-10-20T23:01:12.586Z,1.83
2022-10-20T23:03:40.336Z,1.85
2022-10-20T23:06:14.308Z,2.08
2022-10-20T23:08:47.191Z,1.67
2022-10-20T23:11:15.365Z,1.67
2022-10-20T23:13:42.644Z,1.70
2022-10-20T23:16:10.256Z,1.90
2022-10-20T23:18:37.797Z,1.75
2022-10-20T23:21:05.381Z,2.00
2022-10-20T23:23:35.344Z,1.92
2022-10-20T23:26:04.668Z,2.13
2022-10-20T23:28:32.258Z,1.70
2022-10-20T23:31:09.545Z,2.08
2022-10-20T23:33:37.508Z,2.40
2022-10-20T23:36:04.909Z,2.63
2022-10-20T23:38:32.335Z,1.67
2022-10-20T23:40:59.647Z,1.77
2022-10-20T23:43:27.008Z,1.45
2022-10-20T23:45:54.385Z,1.50
2022-10-20T23:48:21.617Z,1.40
2022-10-20T23:50:48.864Z,1.70
2022-10-20T23:53:16.095Z,1.63
2022-10-20T23:55:43.768Z,1.08
2022-10-20T23:58:11.130Z,1.20
